sensor_id;sensor_type;location;lat;lon;timestamp;P1;durP1;ratioP1;P2;durP2;ratioP2
9848;SDS011;4963;51.444;6.528;2022-12-05T00:01:40;35.33;;;22.07;;
9848;SDS011;4963;51.444;6.528;2022-12-05T00:04:09;34.10;;;21.50;;
9848;SDS011;4963;51.444;6.528;2022-12-05T00:06:38;35.83;;;21.83;;
9848;SDS011;4963;51.444;6.528;2022-12-05T00:09:07;35.73;;;23.20;;
9848;SDS011;4963;51.444;6.528;2022-12-05T00:11:36;33.47;;;22.23;;
9848;SDS011;4963;51.444;6.528;2022-12-05T00:14:04;39.10;;;23.13;;
9848;SDS011;4963;51.444;6.528;2022-12-05T00:16:32;36.93;;;21.90;;
9848;SDS011;4963;51.444;6.528;2022-12-05T00:19:01;37.40;;;22.77;;
9848;SDS011;4963;51.444;6.528;2022-12-05T00:21:31;34.10;;;21.90;;
9848;SDS011;4963;51.444;6.528;2022-12-05T00:23:59;37.43;;;23.10;;
9848;SDS011;4963;51.444;6.528;2022-12-05T00:26:28;37.60;;;23.43;;
9848;SDS011;4963;51.444;6.528;2022-12-05T00:28:57;37.43;;;23.37;;
9848;SDS011;4963;51.444;6.528;2022-12-05T00:31:24;37.20;;;23.17;;
9848;SDS011;4963;51.444;6.528;2022-12-05T00:33:52;35.50;;;22.13;;
9848;SDS011;4963;51.444;6.528;2022-12-05T00:36:20;35.30;;;22.80;;
9848;SDS011;4963;51.444;6.528;2022-12-05T00:38:49;42.03;;;24.37;;
9848;SDS011;4963;51.444;6.528;2022-12-05T00:41:18;40.67;;;23.60;;
9848;SDS011;4963;51.444;6.528;2022-12-05T00:43:47;34.93;;;22.43;;
9848;SDS011;4963;51.444;6.528;2022-12-05T00:46:15;36.30;;;22.20;;
9848;SDS011;4963;51.444;6.528;2022-12-05T00:48:45;37.30;;;23.20;;
9848;SDS011;4963;51.444;6.528;2022-12-05T00:51:13;37.33;;;23.07;;
9848;SDS011;4963;51.444;6.528;2022-12-05T00:53:41;34.07;;;22.77;;
9848;SDS011;4963;51.444;6.528;2022-12-05T00:56:09;36.13;;;23.27;;
9848;SDS011;4963;51.444;6.528;2022-12-05T00:58:38;36.30;;;23.13;;
9848;SDS011;4963;51.444;6.528;2022-12-05T01:01:06;35.13;;;22.70;;
9848;SDS011;4963;51.444;6.528;2022-12-05T01:03:36;39.10;;;23.37;;
9848;SDS011;4963;51.444;6.528;2022-12-05T01:06:03;36.27;;;23.23;;
9848;SDS011;4963;51.444;6.528;2022-12-05T01:08:31;35.27;;;23.50;;
9848;SDS011;4963;51.444;6.528;2022-12-05T01:10:58;35.30;;;22.40;;
9848;SDS011;4963;51.444;6.528;2022-12-05T01:13:25;34.57;;;22.93;;
9848;SDS011;4963;51.444;6.528;2022-12-05T01:15:53;36.33;;;22.97;;
9848;SDS011;4963;51.444;6.528;2022-12-05T01:18:22;35.37;;;21.90;;
9848;SDS011;4963;51.444;6.528;2022-12-05T01:20:49;39.80;;;23.40;;
9848;SDS011;4963;51.444;6.528;2022-12-05T01:23:16;45.93;;;24.13;;
9848;SDS011;4963;51.444;6.528;2022-12-05T01:25:45;36.90;;;22.93;;
9848;SDS011;4963;51.444;6.528;2022-12-05T01:28:13;36.57;;;23.20;;
9848;SDS011;4963;51.444;6.528;2022-12-05T01:30:42;39.30;;;23.83;;
9848;SDS011;4963;51.444;6.528;2022-12-05T01:33:12;36.17;;;22.50;;
9848;SDS011;4963;51.444;6.528;2022-12-05T01:35:40;34.47;;;22.77;;
9848;SDS011;4963;51.444;6.528;2022-12-05T01:38:08;34.57;;;23.17;;
9848;SDS011;4963;51.444;6.528;2022-12-05T01:40:36;34.73;;;22.77;;
9848;SDS011;4963;51.444;6.528;2022-12-05T01:43:05;38.63;;;24.40;;
9848;SDS011;4963;51.444;6.528;2022-12-05T01:45:36;34.27;;;22.70;;
9848;SDS011;4963;51.444;6.528;2022-12-05T01:48:05;34.53;;;22.47;;
9848;SDS011;4963;51.444;6.528;2022-12-05T01:50:35;41.83;;;24.67;;
9848;SDS011;4963;51.444;6.528;2022-12-05T01:53:04;36.27;;;23.83;;
9848;SDS011;4963;51.444;6.528;2022-12-05T01:55:31;37.63;;;23.67;;
9848;SDS011;4963;51.444;6.528;2022-12-05T01:58:00;41.30;;;23.33;;
9848;SDS011;4963;51.444;6.528;2022-12-05T02:00:28;36.30;;;23.67;;
9848;SDS011;4963;51.444;6.528;2022-12-05T02:02:55;38.40;;;24.03;;
9848;SDS011;4963;51.444;6.528;2022-12-05T02:05:26;37.83;;;22.87;;
9848;SDS011;4963;51.444;6.528;2022-12-05T02:07:56;37.63;;;24.00;;
9848;SDS011;4963;51.444;6.528;2022-12-05T02:10:25;35.37;;;23.17;;
9848;SDS011;4963;51.444;6.528;2022-12-05T02:12:55;39.20;;;24.57;;
9848;SDS011;4963;51.444;6.528;2022-12-05T02:15:28;39.67;;;23.93;;
9848;SDS011;4963;51.444;6.528;2022-12-05T02:18:07;38.27;;;23.43;;
9848;SDS011;4963;51.444;6.528;2022-12-05T02:20:53;37.30;;;22.63;;
9848;SDS011;4963;51.444;6.528;2022-12-05T02:23:36;37.73;;;23.33;;
9848;SDS011;4963;51.444;6.528;2022-12-05T02:26:23;39.43;;;23.33;;
9848;SDS011;4963;51.444;6.528;2022-12-05T02:32:17;36.20;;;23.13;;
9848;SDS011;4963;51.444;6.528;2022-12-05T02:34:52;34.93;;;23.33;;
9848;SDS011;4963;51.444;6.528;2022-12-05T02:37:26;39.13;;;24.20;;
9848;SDS011;4963;51.444;6.528;2022-12-05T02:39:59;37.50;;;24.17;;
9848;SDS011;4963;51.444;6.528;2022-12-05T02:42:34;39.43;;;23.30;;
9848;SDS011;4963;51.444;6.528;2022-12-05T02:45:07;37.53;;;23.17;;
9848;SDS011;4963;51.444;6.528;2022-12-05T02:47:38;36.37;;;22.90;;
9848;SDS011;4963;51.444;6.528;2022-12-05T02:50:09;37.83;;;23.60;;
9848;SDS011;4963;51.444;6.528;2022-12-05T02:52:41;36.53;;;22.57;;
9848;SDS011;4963;51.444;6.528;2022-12-05T02:55:10;35.70;;;23.27;;
9848;SDS011;4963;51.444;6.528;2022-12-05T02:57:42;33.50;;;22.63;;
9848;SDS011;4963;51.444;6.528;2022-12-05T03:00:13;38.23;;;22.67;;
9848;SDS011;4963;51.444;6.528;2022-12-05T03:02:42;34.73;;;21.17;;
9848;SDS011;4963;51.444;6.528;2022-12-05T03:05:13;42.60;;;23.43;;
9848;SDS011;4963;51.444;6.528;2022-12-05T03:07:44;38.13;;;22.53;;
9848;SDS011;4963;51.444;6.528;2022-12-05T03:10:13;36.03;;;23.00;;
9848;SDS011;4963;51.444;6.528;2022-12-05T03:12:45;35.73;;;22.67;;
9848;SDS011;4963;51.444;6.528;2022-12-05T03:15:16;37.67;;;22.50;;
9848;SDS011;4963;51.444;6.528;2022-12-05T03:17:48;36.27;;;22.80;;
9848;SDS011;4963;51.444;6.528;2022-12-05T03:20:20;37.40;;;23.40;;
9848;SDS011;4963;51.444;6.528;2022-12-05T03:22:53;39.77;;;24.63;;
9848;SDS011;4963;51.444;6.528;2022-12-05T03:25:27;36.07;;;23.23;;
9848;SDS011;4963;51.444;6.528;2022-12-05T03:28:00;36.30;;;23.90;;
9848;SDS011;4963;51.444;6.528;2022-12-05T03:30:31;35.50;;;22.13;;
9848;SDS011;4963;51.444;6.528;2022-12-05T03:33:06;36.77;;;23.17;;
9848;SDS011;4963;51.444;6.528;2022-12-05T03:35:38;33.83;;;21.57;;
9848;SDS011;4963;51.444;6.528;2022-12-05T03:38:08;36.60;;;22.47;;
9848;SDS011;4963;51.444;6.528;2022-12-05T03:40:39;36.43;;;22.43;;
9848;SDS011;4963;51.444;6.528;2022-12-05T03:43:12;37.73;;;22.43;;
9848;SDS011;4963;51.444;6.528;2022-12-05T03:45:42;34.03;;;22.47;;
9848;SDS011;4963;51.444;6.528;2022-12-05T03:48:16;36.67;;;21.37;;
9848;SDS011;4963;51.444;6.528;2022-12-05T03:50:49;36.37;;;22.53;;
9848;SDS011;4963;51.444;6.528;2022-12-05T03:53:19;36.00;;;22.07;;
9848;SDS011;4963;51.444;6.528;2022-12-05T03:55:54;36.90;;;21.43;;
9848;SDS011;4963;51.444;6.528;2022-12-05T03:58:25;37.60;;;21.93;;
9848;SDS011;4963;51.444;6.528;2022-12-05T04:00:55;36.53;;;22.27;;
9848;SDS011;4963;51.444;6.528;2022-12-05T04:03:29;38.30;;;21.87;;
9848;SDS011;4963;51.444;6.528;2022-12-05T04:06:05;37.80;;;21.97;;
9848;SDS011;4963;51.444;6.528;2022-12-05T04:08:38;36.87;;;22.33;;
9848;SDS011;4963;51.444;6.528;2022-12-05T04:11:09;33.63;;;21.43;;
9848;SDS011;4963;51.444;6.528;2022-12-05T04:13:40;35.17;;;21.27;;
9848;SDS011;4963;51.444;6.528;2022-12-05T04:16:13;34.73;;;21.80;;
9848;SDS011;4963;51.444;6.528;2022-12-05T04:19:04;36.27;;;21.77;;
9848;SDS011;4963;51.444;6.528;2022-12-05T04:21:39;36.40;;;21.90;;
9848;SDS011;4963;51.444;6.528;2022-12-05T04:24:08;33.50;;;21.73;;
9848;SDS011;4963;51.444;6.528;2022-12-05T04:27:07;36.43;;;22.70;;
9848;SDS011;4963;51.444;6.528;2022-12-05T04:29:42;35.90;;;22.03;;
9848;SDS011;4963;51.444;6.528;2022-12-05T04:32:15;35.47;;;22.07;;
9848;SDS011;4963;51.444;6.528;2022-12-05T04:34:46;36.70;;;21.80;;
9848;SDS011;4963;51.444;6.528;2022-12-05T04:37:18;33.47;;;21.33;;
9848;SDS011;4963;51.444;6.528;2022-12-05T04:39:47;36.90;;;21.73;;
9848;SDS011;4963;51.444;6.528;2022-12-05T04:42:21;39.10;;;21.80;;
9848;SDS011;4963;51.444;6.528;2022-12-05T04:44:52;34.50;;;22.10;;
9848;SDS011;4963;51.444;6.528;2022-12-05T04:47:20;35.77;;;21.57;;
9848;SDS011;4963;51.444;6.528;2022-12-05T04:49:56;33.83;;;21.40;;
9848;SDS011;4963;51.444;6.528;2022-12-05T04:52:25;38.23;;;22.97;;
9848;SDS011;4963;51.444;6.528;2022-12-05T04:54:56;33.17;;;21.70;;
9848;SDS011;4963;51.444;6.528;2022-12-05T04:57:28;35.17;;;21.70;;
9848;SDS011;4963;51.444;6.528;2022-12-05T04:59:58;34.40;;;21.40;;
9848;SDS011;4963;51.444;6.528;2022-12-05T05:02:26;34.53;;;21.20;;
9848;SDS011;4963;51.444;6.528;2022-12-05T05:05:01;31.90;;;20.80;;
9848;SDS011;4963;51.444;6.528;2022-12-05T05:07:32;31.90;;;20.37;;
9848;SDS011;4963;51.444;6.528;2022-12-05T05:10:09;30.83;;;20.97;;
9848;SDS011;4963;51.444;6.528;2022-12-05T05:12:38;36.37;;;21.70;;
9848;SDS011;4963;51.444;6.528;2022-12-05T05:15:05;35.67;;;21.73;;
9848;SDS011;4963;51.444;6.528;2022-12-05T05:17:32;36.73;;;22.10;;
9848;SDS011;4963;51.444;6.528;2022-12-05T05:20:00;37.07;;;23.00;;
9848;SDS011;4963;51.444;6.528;2022-12-05T05:22:47;34.30;;;20.43;;
9848;SDS011;4963;51.444;6.528;2022-12-05T05:25:14;36.70;;;22.03;;
9848;SDS011;4963;51.444;6.528;2022-12-05T05:27:41;38.27;;;21.67;;
9848;SDS011;4963;51.444;6.528;2022-12-05T05:30:08;34.37;;;22.17;;
9848;SDS011;4963;51.444;6.528;2022-12-05T05:32:36;38.23;;;21.67;;
9848;SDS011;4963;51.444;6.528;2022-12-05T05:35:04;33.93;;;21.70;;
9848;SDS011;4963;51.444;6.528;2022-12-05T05:37:31;35.63;;;21.50;;
9848;SDS011;4963;51.444;6.528;2022-12-05T05:39:58;31.20;;;20.73;;
9848;SDS011;4963;51.444;6.528;2022-12-05T05:42:25;31.80;;;20.43;;
9848;SDS011;4963;51.444;6.528;2022-12-05T05:44:51;32.87;;;20.40;;
9848;SDS011;4963;51.444;6.528;2022-12-05T05:47:18;35.07;;;20.33;;
9848;SDS011;4963;51.444;6.528;2022-12-05T05:49:45;32.53;;;21.43;;
9848;SDS011;4963;51.444;6.528;2022-12-05T05:52:13;33.90;;;20.63;;
9848;SDS011;4963;51.444;6.528;2022-12-05T05:54:40;28.07;;;19.70;;
9848;SDS011;4963;51.444;6.528;2022-12-05T05:57:07;34.20;;;22.33;;
9848;SDS011;4963;51.444;6.528;2022-12-05T05:59:33;31.93;;;20.73;;
9848;SDS011;4963;51.444;6.528;2022-12-05T06:02:00;31.80;;;20.23;;
9848;SDS011;4963;51.444;6.528;2022-12-05T06:04:27;34.80;;;20.03;;
9848;SDS011;4963;51.444;6.528;2022-12-05T06:06:54;31.20;;;19.03;;
9848;SDS011;4963;51.444;6.528;2022-12-05T06:09:22;34.13;;;19.20;;
9848;SDS011;4963;51.444;6.528;2022-12-05T06:11:48;32.03;;;20.27;;
9848;SDS011;4963;51.444;6.528;2022-12-05T06:14:15;26.80;;;18.73;;
9848;SDS011;4963;51.444;6.528;2022-12-05T06:16:42;27.30;;;18.20;;
9848;SDS011;4963;51.444;6.528;2022-12-05T06:19:09;30.30;;;20.10;;
9848;SDS011;4963;51.444;6.528;2022-12-05T06:21:35;28.27;;;18.30;;
9848;SDS011;4963;51.444;6.528;2022-12-05T06:24:02;28.70;;;18.83;;
9848;SDS011;4963;51.444;6.528;2022-12-05T06:26:31;29.23;;;17.93;;
9848;SDS011;4963;51.444;6.528;2022-12-05T06:28:58;27.33;;;18.73;;
9848;SDS011;4963;51.444;6.528;2022-12-05T06:31:27;31.00;;;18.00;;
9848;SDS011;4963;51.444;6.528;2022-12-05T06:33:58;25.33;;;17.00;;
9848;SDS011;4963;51.444;6.528;2022-12-05T06:36:25;27.73;;;18.23;;
9848;SDS011;4963;51.444;6.528;2022-12-05T06:38:53;27.83;;;18.03;;
9848;SDS011;4963;51.444;6.528;2022-12-05T06:41:21;28.73;;;17.90;;
9848;SDS011;4963;51.444;6.528;2022-12-05T06:43:52;29.03;;;18.20;;
9848;SDS011;4963;51.444;6.528;2022-12-05T06:46:19;33.33;;;19.17;;
9848;SDS011;4963;51.444;6.528;2022-12-05T06:48:47;26.03;;;16.87;;
9848;SDS011;4963;51.444;6.528;2022-12-05T06:51:14;25.70;;;17.30;;
9848;SDS011;4963;51.444;6.528;2022-12-05T06:53:41;27.33;;;17.67;;
9848;SDS011;4963;51.444;6.528;2022-12-05T06:56:09;30.33;;;18.30;;
9848;SDS011;4963;51.444;6.528;2022-12-05T06:58:37;27.03;;;18.30;;
9848;SDS011;4963;51.444;6.528;2022-12-05T07:01:07;26.97;;;17.40;;
9848;SDS011;4963;51.444;6.528;2022-12-05T07:03:54;27.73;;;17.43;;
9848;SDS011;4963;51.444;6.528;2022-12-05T07:06:24;27.20;;;17.43;;
9848;SDS011;4963;51.444;6.528;2022-12-05T07:08:51;28.40;;;16.90;;
9848;SDS011;4963;51.444;6.528;2022-12-05T07:11:18;25.93;;;17.63;;
9848;SDS011;4963;51.444;6.528;2022-12-05T07:13:45;26.90;;;17.77;;
9848;SDS011;4963;51.444;6.528;2022-12-05T07:16:13;26.70;;;17.90;;
9848;SDS011;4963;51.444;6.528;2022-12-05T07:18:40;26.10;;;18.03;;
9848;SDS011;4963;51.444;6.528;2022-12-05T07:21:08;24.73;;;16.27;;
9848;SDS011;4963;51.444;6.528;2022-12-05T07:23:39;25.70;;;17.37;;
9848;SDS011;4963;51.444;6.528;2022-12-05T07:26:06;24.70;;;17.07;;
9848;SDS011;4963;51.444;6.528;2022-12-05T07:28:37;28.33;;;17.90;;
9848;SDS011;4963;51.444;6.528;2022-12-05T07:31:06;24.77;;;16.57;;
9848;SDS011;4963;51.444;6.528;2022-12-05T07:33:37;25.50;;;16.50;;
9848;SDS011;4963;51.444;6.528;2022-12-05T07:36:07;26.53;;;16.83;;
9848;SDS011;4963;51.444;6.528;2022-12-05T07:38:36;24.30;;;16.27;;
9848;SDS011;4963;51.444;6.528;2022-12-05T07:41:04;20.83;;;15.83;;
9848;SDS011;4963;51.444;6.528;2022-12-05T07:43:31;23.43;;;15.63;;
9848;SDS011;4963;51.444;6.528;2022-12-05T07:46:00;23.13;;;15.23;;
9848;SDS011;4963;51.444;6.528;2022-12-05T07:48:27;22.57;;;14.70;;
9848;SDS011;4963;51.444;6.528;2022-12-05T07:50:58;22.17;;;15.27;;
9848;SDS011;4963;51.444;6.528;2022-12-05T07:53:26;24.90;;;15.43;;
9848;SDS011;4963;51.444;6.528;2022-12-05T07:55:57;23.80;;;14.90;;
9848;SDS011;4963;51.444;6.528;2022-12-05T07:58:27;20.37;;;14.73;;
9848;SDS011;4963;51.444;6.528;2022-12-05T08:01:04;21.70;;;14.60;;
9848;SDS011;4963;51.444;6.528;2022-12-05T08:03:33;21.63;;;14.87;;
9848;SDS011;4963;51.444;6.528;2022-12-05T08:06:07;21.43;;;15.00;;
9848;SDS011;4963;51.444;6.528;2022-12-05T08:08:38;22.87;;;14.23;;
9848;SDS011;4963;51.444;6.528;2022-12-05T08:11:06;18.30;;;13.20;;
9848;SDS011;4963;51.444;6.528;2022-12-05T08:13:42;20.30;;;13.80;;
9848;SDS011;4963;51.444;6.528;2022-12-05T08:16:36;21.57;;;13.17;;
9848;SDS011;4963;51.444;6.528;2022-12-05T08:19:23;17.03;;;13.47;;
9848;SDS011;4963;51.444;6.528;2022-12-05T08:22:05;18.03;;;12.90;;
9848;SDS011;4963;51.444;6.528;2022-12-05T08:24:34;19.17;;;13.67;;
9848;SDS011;4963;51.444;6.528;2022-12-05T08:27:11;19.53;;;12.77;;
9848;SDS011;4963;51.444;6.528;2022-12-05T08:29:38;17.83;;;13.00;;
9848;SDS011;4963;51.444;6.528;2022-12-05T08:32:07;17.27;;;11.97;;
9848;SDS011;4963;51.444;6.528;2022-12-05T08:34:34;18.77;;;12.53;;
9848;SDS011;4963;51.444;6.528;2022-12-05T08:37:01;16.10;;;11.83;;
9848;SDS011;4963;51.444;6.528;2022-12-05T08:39:31;18.07;;;13.27;;
9848;SDS011;4963;51.444;6.528;2022-12-05T08:41:58;18.00;;;12.70;;
9848;SDS011;4963;51.444;6.528;2022-12-05T08:44:27;18.43;;;12.70;;
9848;SDS011;4963;51.444;6.528;2022-12-05T08:46:57;16.83;;;11.77;;
9848;SDS011;4963;51.444;6.528;2022-12-05T08:49:23;20.13;;;13.73;;
9848;SDS011;4963;51.444;6.528;2022-12-05T08:51:50;17.90;;;13.30;;
9848;SDS011;4963;51.444;6.528;2022-12-05T08:54:17;16.83;;;12.30;;
9848;SDS011;4963;51.444;6.528;2022-12-05T08:56:51;17.97;;;12.30;;
9848;SDS011;4963;51.444;6.528;2022-12-05T08:59:17;17.70;;;12.20;;
9848;SDS011;4963;51.444;6.528;2022-12-05T09:01:44;17.47;;;12.77;;
9848;SDS011;4963;51.444;6.528;2022-12-05T09:04:11;17.40;;;13.33;;
9848;SDS011;4963;51.444;6.528;2022-12-05T09:06:38;17.10;;;12.43;;
9848;SDS011;4963;51.444;6.528;2022-12-05T09:09:07;19.33;;;13.33;;
9848;SDS011;4963;51.444;6.528;2022-12-05T09:11:36;18.93;;;13.63;;
9848;SDS011;4963;51.444;6.528;2022-12-05T09:14:09;16.33;;;12.60;;
9848;SDS011;4963;51.444;6.528;2022-12-05T09:16:40;22.73;;;12.73;;
9848;SDS011;4963;51.444;6.528;2022-12-05T09:19:10;16.83;;;12.47;;
9848;SDS011;4963;51.444;6.528;2022-12-05T09:21:40;18.13;;;13.00;;
9848;SDS011;4963;51.444;6.528;2022-12-05T09:24:08;20.70;;;13.07;;
9848;SDS011;4963;51.444;6.528;2022-12-05T09:26:36;18.70;;;13.27;;
9848;SDS011;4963;51.444;6.528;2022-12-05T09:29:06;19.43;;;13.07;;
9848;SDS011;4963;51.444;6.528;2022-12-05T09:31:37;18.07;;;12.97;;
9848;SDS011;4963;51.444;6.528;2022-12-05T09:34:06;17.83;;;12.83;;
9848;SDS011;4963;51.444;6.528;2022-12-05T09:36:42;18.00;;;13.07;;
9848;SDS011;4963;51.444;6.528;2022-12-05T09:39:18;19.80;;;13.07;;
9848;SDS011;4963;51.444;6.528;2022-12-05T09:42:03;19.73;;;14.40;;
9848;SDS011;4963;51.444;6.528;2022-12-05T09:45:04;18.30;;;13.40;;
9848;SDS011;4963;51.444;6.528;2022-12-05T09:47:41;19.90;;;13.97;;
9848;SDS011;4963;51.444;6.528;2022-12-05T09:50:18;20.80;;;12.90;;
9848;SDS011;4963;51.444;6.528;2022-12-05T09:52:54;20.60;;;12.30;;
9848;SDS011;4963;51.444;6.528;2022-12-05T09:55:43;17.07;;;12.47;;
9848;SDS011;4963;51.444;6.528;2022-12-05T09:58:24;16.27;;;12.33;;
9848;SDS011;4963;51.444;6.528;2022-12-05T10:00:58;17.63;;;12.50;;
9848;SDS011;4963;51.444;6.528;2022-12-05T10:04:59;19.20;;;12.00;;
9848;SDS011;4963;51.444;6.528;2022-12-05T10:07:06;16.83;;;12.23;;
9848;SDS011;4963;51.444;6.528;2022-12-05T10:09:53;15.40;;;11.23;;
9848;SDS011;4963;51.444;6.528;2022-12-05T10:12:34;16.20;;;12.00;;
9848;SDS011;4963;51.444;6.528;2022-12-05T10:15:12;15.63;;;11.47;;
9848;SDS011;4963;51.444;6.528;2022-12-05T10:17:47;15.80;;;11.70;;
9848;SDS011;4963;51.444;6.528;2022-12-05T10:20:20;15.53;;;11.27;;
9848;SDS011;4963;51.444;6.528;2022-12-05T10:22:53;14.87;;;11.17;;
9848;SDS011;4963;51.444;6.528;2022-12-05T10:25:26;16.53;;;12.23;;
9848;SDS011;4963;51.444;6.528;2022-12-05T10:28:01;16.70;;;11.97;;
9848;SDS011;4963;51.444;6.528;2022-12-05T10:30:35;13.53;;;10.60;;
9848;SDS011;4963;51.444;6.528;2022-12-05T10:33:10;15.37;;;11.70;;
9848;SDS011;4963;51.444;6.528;2022-12-05T10:35:42;13.87;;;11.30;;
9848;SDS011;4963;51.444;6.528;2022-12-05T10:38:10;13.73;;;11.27;;
9848;SDS011;4963;51.444;6.528;2022-12-05T10:40:44;15.43;;;11.63;;
9848;SDS011;4963;51.444;6.528;2022-12-05T10:43:17;14.03;;;10.70;;
9848;SDS011;4963;51.444;6.528;2022-12-05T10:45:52;13.10;;;11.20;;
9848;SDS011;4963;51.444;6.528;2022-12-05T10:48:21;13.80;;;10.20;;
9848;SDS011;4963;51.444;6.528;2022-12-05T10:50:50;14.80;;;12.57;;
9848;SDS011;4963;51.444;6.528;2022-12-05T10:53:23;14.67;;;11.43;;
9848;SDS011;4963;51.444;6.528;2022-12-05T10:55:54;14.30;;;11.03;;
9848;SDS011;4963;51.444;6.528;2022-12-05T10:58:24;14.83;;;11.37;;
9848;SDS011;4963;51.444;6.528;2022-12-05T11:00:54;13.33;;;10.53;;
9848;SDS011;4963;51.444;6.528;2022-12-05T11:03:27;13.43;;;10.33;;
9848;SDS011;4963;51.444;6.528;2022-12-05T11:05:59;14.03;;;10.27;;
9848;SDS011;4963;51.444;6.528;2022-12-05T11:08:28;13.27;;;9.53;;
9848;SDS011;4963;51.444;6.528;2022-12-05T11:11:00;11.83;;;9.90;;
9848;SDS011;4963;51.444;6.528;2022-12-05T11:13:37;13.80;;;10.37;;
9848;SDS011;4963;51.444;6.528;2022-12-05T11:16:31;11.17;;;9.40;;
9848;SDS011;4963;51.444;6.528;2022-12-05T11:19:16;12.50;;;9.20;;
9848;SDS011;4963;51.444;6.528;2022-12-05T11:21:51;13.43;;;10.10;;
9848;SDS011;4963;51.444;6.528;2022-12-05T11:24:23;12.17;;;9.80;;
9848;SDS011;4963;51.444;6.528;2022-12-05T11:26:55;12.63;;;10.07;;
9848;SDS011;4963;51.444;6.528;2022-12-05T11:29:27;12.40;;;10.57;;
9848;SDS011;4963;51.444;6.528;2022-12-05T11:32:02;20.40;;;18.30;;
9848;SDS011;4963;51.444;6.528;2022-12-05T11:34:34;12.97;;;10.50;;
9848;SDS011;4963;51.444;6.528;2022-12-05T11:37:19;13.60;;;9.70;;
9848;SDS011;4963;51.444;6.528;2022-12-05T11:39:58;12.00;;;10.30;;
9848;SDS011;4963;51.444;6.528;2022-12-05T11:42:34;14.63;;;11.00;;
9848;SDS011;4963;51.444;6.528;2022-12-05T11:45:16;12.77;;;11.37;;
9848;SDS011;4963;51.444;6.528;2022-12-05T11:48:17;12.17;;;9.63;;
9848;SDS011;4963;51.444;6.528;2022-12-05T11:51:19;12.00;;;9.27;;
9848;SDS011;4963;51.444;6.528;2022-12-05T11:57:43;13.37;;;11.13;;
9848;SDS011;4963;51.444;6.528;2022-12-05T12:04:11;13.70;;;9.23;;
9848;SDS011;4963;51.444;6.528;2022-12-05T12:14:44;10.13;;;8.60;;
9848;SDS011;4963;51.444;6.528;2022-12-05T12:17:36;11.83;;;10.13;;
9848;SDS011;4963;51.444;6.528;2022-12-05T12:20:16;10.97;;;9.00;;
9848;SDS011;4963;51.444;6.528;2022-12-05T12:24:05;11.93;;;9.70;;
9848;SDS011;4963;51.444;6.528;2022-12-05T12:26:43;11.23;;;10.03;;
9848;SDS011;4963;51.444;6.528;2022-12-05T12:29:46;11.53;;;9.93;;
9848;SDS011;4963;51.444;6.528;2022-12-05T12:32:36;12.90;;;11.20;;
9848;SDS011;4963;51.444;6.528;2022-12-05T12:35:44;16.17;;;14.33;;
9848;SDS011;4963;51.444;6.528;2022-12-05T12:48:21;10.73;;;8.17;;
9848;SDS011;4963;51.444;6.528;2022-12-05T12:50:57;11.63;;;9.40;;
9848;SDS011;4963;51.444;6.528;2022-12-05T12:53:49;10.47;;;8.80;;
9848;SDS011;4963;51.444;6.528;2022-12-05T13:00:19;12.80;;;9.07;;
9848;SDS011;4963;51.444;6.528;2022-12-05T13:02:58;10.93;;;9.07;;
9848;SDS011;4963;51.444;6.528;2022-12-05T13:05:36;10.63;;;8.70;;
9848;SDS011;4963;51.444;6.528;2022-12-05T13:08:31;10.50;;;9.27;;
9848;SDS011;4963;51.444;6.528;2022-12-05T13:11:24;10.00;;;8.63;;
9848;SDS011;4963;51.444;6.528;2022-12-05T13:14:00;12.27;;;9.20;;
9848;SDS011;4963;51.444;6.528;2022-12-05T13:16:27;11.27;;;9.30;;
9848;SDS011;4963;51.444;6.528;2022-12-05T13:19:00;11.10;;;8.87;;
9848;SDS011;4963;51.444;6.528;2022-12-05T13:21:32;10.27;;;8.93;;
9848;SDS011;4963;51.444;6.528;2022-12-05T13:24:05;10.33;;;8.77;;
9848;SDS011;4963;51.444;6.528;2022-12-05T13:26:44;12.80;;;10.23;;
9848;SDS011;4963;51.444;6.528;2022-12-05T13:29:17;9.97;;;8.90;;
9848;SDS011;4963;51.444;6.528;2022-12-05T13:31:57;12.37;;;9.97;;
9848;SDS011;4963;51.444;6.528;2022-12-05T13:34:39;12.47;;;9.80;;
9848;SDS011;4963;51.444;6.528;2022-12-05T13:37:25;10.97;;;9.43;;
9848;SDS011;4963;51.444;6.528;2022-12-05T13:43:41;11.27;;;9.43;;
9848;SDS011;4963;51.444;6.528;2022-12-05T13:46:22;11.93;;;9.43;;
9848;SDS011;4963;51.444;6.528;2022-12-05T13:49:05;10.43;;;9.30;;
9848;SDS011;4963;51.444;6.528;2022-12-05T13:51:43;10.83;;;8.97;;
9848;SDS011;4963;51.444;6.528;2022-12-05T13:54:21;10.93;;;9.70;;
9848;SDS011;4963;51.444;6.528;2022-12-05T13:56:50;10.53;;;9.43;;
9848;SDS011;4963;51.444;6.528;2022-12-05T14:02:54;11.03;;;9.43;;
9848;SDS011;4963;51.444;6.528;2022-12-05T14:11:22;10.50;;;8.63;;
9848;SDS011;4963;51.444;6.528;2022-12-05T14:14:01;11.10;;;9.17;;
9848;SDS011;4963;51.444;6.528;2022-12-05T14:22:12;11.70;;;9.93;;
9848;SDS011;4963;51.444;6.528;2022-12-05T14:24:56;10.70;;;9.03;;
9848;SDS011;4963;51.444;6.528;2022-12-05T14:27:39;10.87;;;9.73;;
9848;SDS011;4963;51.444;6.528;2022-12-05T14:30:21;10.93;;;9.20;;
9848;SDS011;4963;51.444;6.528;2022-12-05T14:32:54;10.20;;;8.80;;
9848;SDS011;4963;51.444;6.528;2022-12-05T14:35:31;12.27;;;9.17;;
9848;SDS011;4963;51.444;6.528;2022-12-05T14:38:07;9.97;;;8.63;;
9848;SDS011;4963;51.444;6.528;2022-12-05T14:41:09;11.17;;;9.07;;
9848;SDS011;4963;51.444;6.528;2022-12-05T14:43:43;14.13;;;9.80;;
9848;SDS011;4963;51.444;6.528;2022-12-05T14:46:22;12.00;;;9.80;;
9848;SDS011;4963;51.444;6.528;2022-12-05T14:48:51;12.00;;;8.67;;
9848;SDS011;4963;51.444;6.528;2022-12-05T14:54:11;12.03;;;9.57;;
9848;SDS011;4963;51.444;6.528;2022-12-05T14:56:49;11.93;;;10.13;;
9848;SDS011;4963;51.444;6.528;2022-12-05T14:59:30;10.87;;;9.13;;
9848;SDS011;4963;51.444;6.528;2022-12-05T15:02:10;11.73;;;9.63;;
9848;SDS011;4963;51.444;6.528;2022-12-05T15:05:19;10.70;;;9.33;;
9848;SDS011;4963;51.444;6.528;2022-12-05T15:07:57;11.57;;;9.50;;
9848;SDS011;4963;51.444;6.528;2022-12-05T15:10:27;9.47;;;8.20;;
9848;SDS011;4963;51.444;6.528;2022-12-05T15:13:07;12.00;;;8.87;;
9848;SDS011;4963;51.444;6.528;2022-12-05T15:15:50;11.30;;;8.83;;
9848;SDS011;4963;51.444;6.528;2022-12-05T15:18:37;11.83;;;10.10;;
9848;SDS011;4963;51.444;6.528;2022-12-05T15:21:24;11.10;;;9.73;;
9848;SDS011;4963;51.444;6.528;2022-12-05T15:24:03;16.87;;;12.80;;
9848;SDS011;4963;51.444;6.528;2022-12-05T15:26:40;15.23;;;11.10;;
9848;SDS011;4963;51.444;6.528;2022-12-05T15:29:10;13.87;;;11.43;;
9848;SDS011;4963;51.444;6.528;2022-12-05T15:31:44;12.80;;;9.83;;
9848;SDS011;4963;51.444;6.528;2022-12-05T15:34:16;14.90;;;11.67;;
9848;SDS011;4963;51.444;6.528;2022-12-05T15:36:54;15.97;;;12.10;;
9848;SDS011;4963;51.444;6.528;2022-12-05T15:39:54;13.60;;;11.93;;
9848;SDS011;4963;51.444;6.528;2022-12-05T15:42:35;12.10;;;9.93;;
9848;SDS011;4963;51.444;6.528;2022-12-05T15:45:22;12.20;;;10.57;;
9848;SDS011;4963;51.444;6.528;2022-12-05T15:48:11;11.80;;;10.43;;
9848;SDS011;4963;51.444;6.528;2022-12-05T15:50:44;12.50;;;10.73;;
9848;SDS011;4963;51.444;6.528;2022-12-05T15:53:24;12.13;;;10.50;;
9848;SDS011;4963;51.444;6.528;2022-12-05T15:55:58;12.87;;;11.03;;
9848;SDS011;4963;51.444;6.528;2022-12-05T15:58:35;17.90;;;13.67;;
9848;SDS011;4963;51.444;6.528;2022-12-05T16:01:23;17.83;;;14.30;;
9848;SDS011;4963;51.444;6.528;2022-12-05T16:03:57;24.77;;;17.70;;
9848;SDS011;4963;51.444;6.528;2022-12-05T16:06:37;22.50;;;15.43;;
9848;SDS011;4963;51.444;6.528;2022-12-05T16:09:12;15.70;;;12.80;;
9848;SDS011;4963;51.444;6.528;2022-12-05T16:11:49;15.83;;;12.93;;
9848;SDS011;4963;51.444;6.528;2022-12-05T16:14:38;16.90;;;13.40;;
9848;SDS011;4963;51.444;6.528;2022-12-05T16:17:08;16.43;;;13.03;;
9848;SDS011;4963;51.444;6.528;2022-12-05T16:19:50;19.23;;;15.03;;
9848;SDS011;4963;51.444;6.528;2022-12-05T16:22:36;19.03;;;15.87;;
9848;SDS011;4963;51.444;6.528;2022-12-05T16:25:20;15.60;;;12.97;;